Terminal Aerodrome Forecast
Issued by NWS Amarillo, TX

Home | Current Version | Previous Version | Text Only | Print | Product List | Glossary On
Versions: 1 2 3 4 5 6 7 8 9 10 11 12 13 14 15 16 17 18 19 20 21 22 23 24
000
FTUS44 KAMA 250603 AAA
TAFAMA
TAF AMD
KAMA 250603Z 2506/2606 33015KT P6SM SCT020 WS003/33035KT
      TEMPO 2506/2507 BKN020
     FM250900 33013KT P6SM SKC
     FM260000 19006KT P6SM FEW250=

USA.gov is the U.S. government's official web portal to all federal, state and local government web resources and services.